sensor_id;sensor_type;location;lat;lon;timestamp;temperature;humidity
3790;DHT22;1910;49.042;9.028;2023-03-01T00:01:26;-2.80;99.90
3790;DHT22;1910;49.042;9.028;2023-03-01T00:03:52;-2.80;99.90
3790;DHT22;1910;49.042;9.028;2023-03-01T00:06:19;-2.80;99.90
3790;DHT22;1910;49.042;9.028;2023-03-01T00:08:45;-2.80;99.90
3790;DHT22;1910;49.042;9.028;2023-03-01T00:13:48;-2.90;99.90
3790;DHT22;1910;49.042;9.028;2023-03-01T00:16:20;-3.00;99.90
3790;DHT22;1910;49.042;9.028;2023-03-01T00:18:46;-3.00;99.90
3790;DHT22;1910;49.042;9.028;2023-03-01T00:21:11;-3.10;99.90
3790;DHT22;1910;49.042;9.028;2023-03-01T00:23:38;-3.00;99.90
3790;DHT22;1910;49.042;9.028;2023-03-01T00:26:08;-3.00;99.90
3790;DHT22;1910;49.042;9.028;2023-03-01T00:28:34;-3.00;99.90
3790;DHT22;1910;49.042;9.028;2023-03-01T00:31:11;-3.10;99.90
3790;DHT22;1910;49.042;9.028;2023-03-01T00:33:37;-2.90;99.90
3790;DHT22;1910;49.042;9.028;2023-03-01T00:36:03;-3.00;99.90
3790;DHT22;1910;49.042;9.028;2023-03-01T00:38:30;-3.00;99.90
3790;DHT22;1910;49.042;9.028;2023-03-01T00:40:56;-2.90;99.90
3790;DHT22;1910;49.042;9.028;2023-03-01T00:43:27;-2.90;99.90
3790;DHT22;1910;49.042;9.028;2023-03-01T00:45:53;-2.80;99.90
3790;DHT22;1910;49.042;9.028;2023-03-01T00:48:18;-2.90;99.90
3790;DHT22;1910;49.042;9.028;2023-03-01T00:50:44;-3.00;99.90
3790;DHT22;1910;49.042;9.028;2023-03-01T00:55:36;-3.20;99.90
3790;DHT22;1910;49.042;9.028;2023-03-01T00:58:02;-3.30;99.90
3790;DHT22;1910;49.042;9.028;2023-03-01T01:00:27;-3.20;99.90
3790;DHT22;1910;49.042;9.028;2023-03-01T01:02:53;-3.20;99.90
3790;DHT22;1910;49.042;9.028;2023-03-01T01:05:18;-3.10;99.90
3790;DHT22;1910;49.042;9.028;2023-03-01T01:07:46;-3.10;99.90
3790;DHT22;1910;49.042;9.028;2023-03-01T01:10:12;-3.10;99.90
3790;DHT22;1910;49.042;9.028;2023-03-01T01:12:43;-3.10;99.90
3790;DHT22;1910;49.042;9.028;2023-03-01T01:15:08;-3.20;99.90
3790;DHT22;1910;49.042;9.028;2023-03-01T01:17:37;-3.20;99.90
3790;DHT22;1910;49.042;9.028;2023-03-01T01:20:03;-3.20;99.90
3790;DHT22;1910;49.042;9.028;2023-03-01T01:22:28;-3.20;99.90
3790;DHT22;1910;49.042;9.028;2023-03-01T01:24:54;-3.10;99.90
3790;DHT22;1910;49.042;9.028;2023-03-01T01:27:19;-3.20;99.90
3790;DHT22;1910;49.042;9.028;2023-03-01T01:29:45;-3.10;99.90
3790;DHT22;1910;49.042;9.028;2023-03-01T01:32:10;-3.20;99.90
3790;DHT22;1910;49.042;9.028;2023-03-01T01:34:36;-3.20;99.90
3790;DHT22;1910;49.042;9.028;2023-03-01T01:37:01;-3.20;99.90
3790;DHT22;1910;49.042;9.028;2023-03-01T01:39:28;-3.10;99.90
3790;DHT22;1910;49.042;9.028;2023-03-01T01:44:22;-3.20;99.90
3790;DHT22;1910;49.042;9.028;2023-03-01T01:49:43;-3.20;99.90
3790;DHT22;1910;49.042;9.028;2023-03-01T01:52:12;-3.20;99.90
3790;DHT22;1910;49.042;9.028;2023-03-01T01:57:23;-3.30;99.90
3790;DHT22;1910;49.042;9.028;2023-03-01T01:59:54;-3.30;99.90
3790;DHT22;1910;49.042;9.028;2023-03-01T02:02:21;-3.30;99.90
3790;DHT22;1910;49.042;9.028;2023-03-01T02:04:49;-3.30;99.90
3790;DHT22;1910;49.042;9.028;2023-03-01T02:07:21;-3.40;99.90
3790;DHT22;1910;49.042;9.028;2023-03-01T02:09:49;-3.40;99.90
3790;DHT22;1910;49.042;9.028;2023-03-01T02:12:18;-3.50;99.90
3790;DHT22;1910;49.042;9.028;2023-03-01T02:14:44;-3.50;99.90
3790;DHT22;1910;49.042;9.028;2023-03-01T02:17:11;-3.60;99.90
3790;DHT22;1910;49.042;9.028;2023-03-01T02:22:22;-3.40;99.90
3790;DHT22;1910;49.042;9.028;2023-03-01T02:27:26;-3.40;99.90
3790;DHT22;1910;49.042;9.028;2023-03-01T02:29:55;-3.40;99.90
3790;DHT22;1910;49.042;9.028;2023-03-01T02:32:21;-3.40;99.90
3790;DHT22;1910;49.042;9.028;2023-03-01T02:34:53;-3.40;99.90
3790;DHT22;1910;49.042;9.028;2023-03-01T02:37:19;-3.50;99.90
3790;DHT22;1910;49.042;9.028;2023-03-01T02:39:55;-3.50;99.90
3790;DHT22;1910;49.042;9.028;2023-03-01T02:42:26;-3.60;99.90
3790;DHT22;1910;49.042;9.028;2023-03-01T02:44:53;-3.70;99.90
3790;DHT22;1910;49.042;9.028;2023-03-01T02:47:19;-3.70;99.90
3790;DHT22;1910;49.042;9.028;2023-03-01T02:49:45;-3.70;99.90
3790;DHT22;1910;49.042;9.028;2023-03-01T02:52:17;-3.80;99.90
3790;DHT22;1910;49.042;9.028;2023-03-01T02:54:54;-3.90;99.90
3790;DHT22;1910;49.042;9.028;2023-03-01T02:57:23;-3.80;99.90
3790;DHT22;1910;49.042;9.028;2023-03-01T02:59:50;-3.80;99.90
3790;DHT22;1910;49.042;9.028;2023-03-01T03:04:46;-3.90;99.90
3790;DHT22;1910;49.042;9.028;2023-03-01T03:07:12;-3.90;99.90
3790;DHT22;1910;49.042;9.028;2023-03-01T03:09:37;-3.90;99.90
3790;DHT22;1910;49.042;9.028;2023-03-01T03:12:03;-3.90;99.90
3790;DHT22;1910;49.042;9.028;2023-03-01T03:14:28;-3.80;99.90
3790;DHT22;1910;49.042;9.028;2023-03-01T03:16:54;-3.80;99.90
3790;DHT22;1910;49.042;9.028;2023-03-01T03:19:20;-3.70;99.90
3790;DHT22;1910;49.042;9.028;2023-03-01T03:21:46;-3.60;99.90
3790;DHT22;1910;49.042;9.028;2023-03-01T03:24:11;-3.60;99.90
3790;DHT22;1910;49.042;9.028;2023-03-01T03:26:37;-3.60;99.90
3790;DHT22;1910;49.042;9.028;2023-03-01T03:29:03;-3.60;99.90
3790;DHT22;1910;49.042;9.028;2023-03-01T03:31:28;-3.60;99.90
3790;DHT22;1910;49.042;9.028;2023-03-01T03:33:54;-3.70;99.90
3790;DHT22;1910;49.042;9.028;2023-03-01T03:36:23;-3.70;99.90
3790;DHT22;1910;49.042;9.028;2023-03-01T03:38:48;-3.60;99.90
3790;DHT22;1910;49.042;9.028;2023-03-01T03:43:41;-3.60;99.90
3790;DHT22;1910;49.042;9.028;2023-03-01T03:46:10;-3.60;99.90
3790;DHT22;1910;49.042;9.028;2023-03-01T03:48:41;-3.60;99.90
3790;DHT22;1910;49.042;9.028;2023-03-01T03:51:10;-3.60;99.90
3790;DHT22;1910;49.042;9.028;2023-03-01T03:53:35;-3.60;99.90
3790;DHT22;1910;49.042;9.028;2023-03-01T03:56:01;-3.70;99.90
3790;DHT22;1910;49.042;9.028;2023-03-01T03:58:26;-3.70;99.90
3790;DHT22;1910;49.042;9.028;2023-03-01T04:00:55;-3.70;99.90
3790;DHT22;1910;49.042;9.028;2023-03-01T04:03:25;-3.70;99.90
3790;DHT22;1910;49.042;9.028;2023-03-01T04:05:51;-3.70;99.90
3790;DHT22;1910;49.042;9.028;2023-03-01T04:08:21;-3.80;99.90
3790;DHT22;1910;49.042;9.028;2023-03-01T04:10:49;-3.80;99.90
3790;DHT22;1910;49.042;9.028;2023-03-01T04:13:21;-3.80;99.90
3790;DHT22;1910;49.042;9.028;2023-03-01T04:15:52;-3.80;99.90
3790;DHT22;1910;49.042;9.028;2023-03-01T04:18:19;-3.80;99.90
3790;DHT22;1910;49.042;9.028;2023-03-01T04:20:45;-3.70;99.90
3790;DHT22;1910;49.042;9.028;2023-03-01T04:23:13;-3.80;99.90
3790;DHT22;1910;49.042;9.028;2023-03-01T04:25:45;-3.80;99.90
3790;DHT22;1910;49.042;9.028;2023-03-01T04:28:11;-3.80;99.90
3790;DHT22;1910;49.042;9.028;2023-03-01T04:30:38;-3.90;99.90
3790;DHT22;1910;49.042;9.028;2023-03-01T04:33:08;-3.90;99.90
3790;DHT22;1910;49.042;9.028;2023-03-01T04:35:35;-3.90;99.90
3790;DHT22;1910;49.042;9.028;2023-03-01T04:38:00;-3.90;99.90
3790;DHT22;1910;49.042;9.028;2023-03-01T04:40:26;-3.90;99.90
3790;DHT22;1910;49.042;9.028;2023-03-01T04:42:51;-3.90;99.90
3790;DHT22;1910;49.042;9.028;2023-03-01T04:45:17;-3.90;99.90
3790;DHT22;1910;49.042;9.028;2023-03-01T04:47:44;-4.00;99.90
3790;DHT22;1910;49.042;9.028;2023-03-01T04:50:11;-4.10;99.90
3790;DHT22;1910;49.042;9.028;2023-03-01T04:52:38;-4.10;99.90
3790;DHT22;1910;49.042;9.028;2023-03-01T04:55:04;-4.00;99.90
3790;DHT22;1910;49.042;9.028;2023-03-01T04:59:57;-3.80;99.90
3790;DHT22;1910;49.042;9.028;2023-03-01T05:02:22;-3.80;99.90
3790;DHT22;1910;49.042;9.028;2023-03-01T05:04:48;-3.70;99.90
3790;DHT22;1910;49.042;9.028;2023-03-01T05:09:45;-3.50;99.90
3790;DHT22;1910;49.042;9.028;2023-03-01T05:12:10;-3.40;99.90
3790;DHT22;1910;49.042;9.028;2023-03-01T05:14:36;-3.40;99.90
3790;DHT22;1910;49.042;9.028;2023-03-01T05:17:04;-3.30;99.90
3790;DHT22;1910;49.042;9.028;2023-03-01T05:19:30;-3.30;99.90
3790;DHT22;1910;49.042;9.028;2023-03-01T05:21:56;-3.20;99.90
3790;DHT22;1910;49.042;9.028;2023-03-01T05:24:33;-3.20;99.90
3790;DHT22;1910;49.042;9.028;2023-03-01T05:26:59;-3.30;99.90
3790;DHT22;1910;49.042;9.028;2023-03-01T05:29:27;-3.40;99.90
3790;DHT22;1910;49.042;9.028;2023-03-01T05:32:02;-3.50;99.90
3790;DHT22;1910;49.042;9.028;2023-03-01T05:34:31;-3.60;99.90
3790;DHT22;1910;49.042;9.028;2023-03-01T05:36:57;-3.60;99.90
3790;DHT22;1910;49.042;9.028;2023-03-01T05:39:24;-3.70;99.90
3790;DHT22;1910;49.042;9.028;2023-03-01T05:41:58;-3.60;99.90
3790;DHT22;1910;49.042;9.028;2023-03-01T05:44:25;-3.60;99.90
3790;DHT22;1910;49.042;9.028;2023-03-01T05:46:51;-3.70;99.90
3790;DHT22;1910;49.042;9.028;2023-03-01T05:49:16;-3.70;99.90
3790;DHT22;1910;49.042;9.028;2023-03-01T05:51:45;-3.70;99.90
3790;DHT22;1910;49.042;9.028;2023-03-01T05:54:12;-3.80;99.90
3790;DHT22;1910;49.042;9.028;2023-03-01T05:56:37;-3.80;99.90
3790;DHT22;1910;49.042;9.028;2023-03-01T05:59:04;-3.90;99.90
3790;DHT22;1910;49.042;9.028;2023-03-01T06:01:34;-3.90;99.90
3790;DHT22;1910;49.042;9.028;2023-03-01T06:04:00;-4.00;99.90
3790;DHT22;1910;49.042;9.028;2023-03-01T06:06:26;-4.00;99.90
3790;DHT22;1910;49.042;9.028;2023-03-01T06:08:53;-3.30;99.90
3790;DHT22;1910;49.042;9.028;2023-03-01T06:11:19;-4.00;99.90
3790;DHT22;1910;49.042;9.028;2023-03-01T06:13:45;-3.90;99.90
3790;DHT22;1910;49.042;9.028;2023-03-01T06:16:12;-3.90;99.90
3790;DHT22;1910;49.042;9.028;2023-03-01T06:18:38;-3.90;99.90
3790;DHT22;1910;49.042;9.028;2023-03-01T06:21:05;-3.90;99.90
3790;DHT22;1910;49.042;9.028;2023-03-01T06:23:31;-3.80;99.90
3790;DHT22;1910;49.042;9.028;2023-03-01T06:25:56;-3.80;99.90
3790;DHT22;1910;49.042;9.028;2023-03-01T06:28:22;-3.70;99.90
3790;DHT22;1910;49.042;9.028;2023-03-01T06:30:48;-3.70;99.90
3790;DHT22;1910;49.042;9.028;2023-03-01T06:33:14;-3.60;99.90
3790;DHT22;1910;49.042;9.028;2023-03-01T06:35:40;-3.40;99.90
3790;DHT22;1910;49.042;9.028;2023-03-01T06:38:05;-3.20;99.90
3790;DHT22;1910;49.042;9.028;2023-03-01T06:40:31;-3.00;99.90
3790;DHT22;1910;49.042;9.028;2023-03-01T06:42:58;-2.90;99.90
3790;DHT22;1910;49.042;9.028;2023-03-01T06:45:24;-3.00;99.90
3790;DHT22;1910;49.042;9.028;2023-03-01T06:47:49;-2.90;99.90
3790;DHT22;1910;49.042;9.028;2023-03-01T06:50:16;-2.70;99.90
3790;DHT22;1910;49.042;9.028;2023-03-01T06:52:42;-2.60;99.90
3790;DHT22;1910;49.042;9.028;2023-03-01T06:55:10;-2.10;99.90
3790;DHT22;1910;49.042;9.028;2023-03-01T06:57:36;-1.00;99.90
3790;DHT22;1910;49.042;9.028;2023-03-01T07:00:03;0.30;99.90
3790;DHT22;1910;49.042;9.028;2023-03-01T07:02:28;1.70;99.90
3790;DHT22;1910;49.042;9.028;2023-03-01T07:04:54;2.80;99.90
3790;DHT22;1910;49.042;9.028;2023-03-01T07:07:19;3.60;99.90
3790;DHT22;1910;49.042;9.028;2023-03-01T07:09:46;4.90;99.90
3790;DHT22;1910;49.042;9.028;2023-03-01T07:12:11;6.30;99.90
3790;DHT22;1910;49.042;9.028;2023-03-01T07:14:37;7.60;99.90
3790;DHT22;1910;49.042;9.028;2023-03-01T07:17:02;8.50;99.90
3790;DHT22;1910;49.042;9.028;2023-03-01T07:19:28;9.10;99.90
3790;DHT22;1910;49.042;9.028;2023-03-01T07:21:53;9.10;99.90
3790;DHT22;1910;49.042;9.028;2023-03-01T07:24:20;9.10;99.90
3790;DHT22;1910;49.042;9.028;2023-03-01T07:26:50;10.20;99.90
3790;DHT22;1910;49.042;9.028;2023-03-01T07:29:16;11.20;97.40
3790;DHT22;1910;49.042;9.028;2023-03-01T07:31:42;12.00;94.70
3790;DHT22;1910;49.042;9.028;2023-03-01T07:34:07;12.40;90.80
3790;DHT22;1910;49.042;9.028;2023-03-01T07:36:33;12.80;89.40
3790;DHT22;1910;49.042;9.028;2023-03-01T07:38:58;12.90;84.70
3790;DHT22;1910;49.042;9.028;2023-03-01T07:41:24;13.10;77.80
3790;DHT22;1910;49.042;9.028;2023-03-01T07:43:50;13.30;79.30
3790;DHT22;1910;49.042;9.028;2023-03-01T07:46:15;13.90;77.60
3790;DHT22;1910;49.042;9.028;2023-03-01T07:48:41;14.80;75.20
3790;DHT22;1910;49.042;9.028;2023-03-01T07:51:07;15.20;69.40
3790;DHT22;1910;49.042;9.028;2023-03-01T07:53:33;15.10;66.60
3790;DHT22;1910;49.042;9.028;2023-03-01T07:56:08;14.40;62.10
3790;DHT22;1910;49.042;9.028;2023-03-01T07:58:35;13.40;63.60
3790;DHT22;1910;49.042;9.028;2023-03-01T08:01:05;12.30;63.60
3790;DHT22;1910;49.042;9.028;2023-03-01T08:03:32;12.00;66.10
3790;DHT22;1910;49.042;9.028;2023-03-01T08:06:04;11.60;66.40
3790;DHT22;1910;49.042;9.028;2023-03-01T08:08:31;11.50;68.70
3790;DHT22;1910;49.042;9.028;2023-03-01T08:10:57;11.30;68.20
3790;DHT22;1910;49.042;9.028;2023-03-01T08:13:25;12.00;71.20
3790;DHT22;1910;49.042;9.028;2023-03-01T08:15:51;12.40;69.30
3790;DHT22;1910;49.042;9.028;2023-03-01T08:18:18;13.00;65.70
3790;DHT22;1910;49.042;9.028;2023-03-01T08:20:44;12.10;64.00
3790;DHT22;1910;49.042;9.028;2023-03-01T08:23:10;11.40;66.80
3790;DHT22;1910;49.042;9.028;2023-03-01T08:25:36;10.60;65.50
3790;DHT22;1910;49.042;9.028;2023-03-01T08:28:02;10.30;67.30
3790;DHT22;1910;49.042;9.028;2023-03-01T08:30:27;10.50;69.80
3790;DHT22;1910;49.042;9.028;2023-03-01T08:32:53;10.60;69.10
3790;DHT22;1910;49.042;9.028;2023-03-01T08:35:19;10.70;69.40
3790;DHT22;1910;49.042;9.028;2023-03-01T08:37:44;10.80;70.40
3790;DHT22;1910;49.042;9.028;2023-03-01T08:40:11;11.10;68.90
3790;DHT22;1910;49.042;9.028;2023-03-01T08:42:39;9.90;68.70
3790;DHT22;1910;49.042;9.028;2023-03-01T08:45:05;9.70;70.70
3790;DHT22;1910;49.042;9.028;2023-03-01T08:47:31;9.70;72.40
3790;DHT22;1910;49.042;9.028;2023-03-01T08:49:59;9.70;73.30
3790;DHT22;1910;49.042;9.028;2023-03-01T08:52:24;10.10;72.00
3790;DHT22;1910;49.042;9.028;2023-03-01T08:54:50;10.50;69.90
3790;DHT22;1910;49.042;9.028;2023-03-01T08:57:15;11.20;71.20
3790;DHT22;1910;49.042;9.028;2023-03-01T08:59:41;11.70;68.70
3790;DHT22;1910;49.042;9.028;2023-03-01T09:02:12;11.80;69.70
3790;DHT22;1910;49.042;9.028;2023-03-01T09:04:39;11.90;69.80
3790;DHT22;1910;49.042;9.028;2023-03-01T09:07:04;11.80;66.50
3790;DHT22;1910;49.042;9.028;2023-03-01T09:09:30;11.10;67.30
3790;DHT22;1910;49.042;9.028;2023-03-01T09:11:55;10.40;69.60
3790;DHT22;1910;49.042;9.028;2023-03-01T09:14:21;10.10;71.50
3790;DHT22;1910;49.042;9.028;2023-03-01T09:16:47;10.00;70.20
3790;DHT22;1910;49.042;9.028;2023-03-01T09:19:13;9.80;71.10
3790;DHT22;1910;49.042;9.028;2023-03-01T09:21:38;9.30;72.80
3790;DHT22;1910;49.042;9.028;2023-03-01T09:24:04;9.20;74.10
3790;DHT22;1910;49.042;9.028;2023-03-01T09:26:30;9.20;73.90
3790;DHT22;1910;49.042;9.028;2023-03-01T09:28:56;9.30;74.80
3790;DHT22;1910;49.042;9.028;2023-03-01T09:31:24;9.20;74.10
3790;DHT22;1910;49.042;9.028;2023-03-01T09:33:51;9.30;74.10
3790;DHT22;1910;49.042;9.028;2023-03-01T09:36:20;9.10;74.40
3790;DHT22;1910;49.042;9.028;2023-03-01T09:38:47;9.10;75.50
3790;DHT22;1910;49.042;9.028;2023-03-01T09:41:42;9.50;76.20
3790;DHT22;1910;49.042;9.028;2023-03-01T09:44:52;9.40;75.90
3790;DHT22;1910;49.042;9.028;2023-03-01T09:47:25;9.00;75.10
3790;DHT22;1910;49.042;9.028;2023-03-01T09:50:15;9.30;76.00
3790;DHT22;1910;49.042;9.028;2023-03-01T09:55:26;9.00;76.50
3790;DHT22;1910;49.042;9.028;2023-03-01T09:57:54;8.70;78.10
3790;DHT22;1910;49.042;9.028;2023-03-01T10:03:12;8.80;79.00
3790;DHT22;1910;49.042;9.028;2023-03-01T10:08:25;8.30;78.50
3790;DHT22;1910;49.042;9.028;2023-03-01T10:10:52;7.60;79.50
3790;DHT22;1910;49.042;9.028;2023-03-01T10:16:22;6.40;85.40
3790;DHT22;1910;49.042;9.028;2023-03-01T10:18:55;5.80;87.10
3790;DHT22;1910;49.042;9.028;2023-03-01T10:21:23;5.50;89.60
3790;DHT22;1910;49.042;9.028;2023-03-01T10:23:52;5.30;91.30
3790;DHT22;1910;49.042;9.028;2023-03-01T10:26:56;5.10;91.30
3790;DHT22;1910;49.042;9.028;2023-03-01T10:29:39;5.10;92.70
3790;DHT22;1910;49.042;9.028;2023-03-01T10:32:08;5.30;93.30
3790;DHT22;1910;49.042;9.028;2023-03-01T10:34:36;5.20;92.50
3790;DHT22;1910;49.042;9.028;2023-03-01T10:37:17;5.30;93.30
3790;DHT22;1910;49.042;9.028;2023-03-01T10:40:03;5.40;93.40
3790;DHT22;1910;49.042;9.028;2023-03-01T10:42:45;5.30;93.70
3790;DHT22;1910;49.042;9.028;2023-03-01T10:45:32;5.50;94.40
3790;DHT22;1910;49.042;9.028;2023-03-01T10:50:46;5.40;94.20
3790;DHT22;1910;49.042;9.028;2023-03-01T10:53:27;5.40;94.10
3790;DHT22;1910;49.042;9.028;2023-03-01T10:56:03;5.40;94.70
3790;DHT22;1910;49.042;9.028;2023-03-01T10:58:29;5.50;94.50
3790;DHT22;1910;49.042;9.028;2023-03-01T11:00:58;5.50;94.90
3790;DHT22;1910;49.042;9.028;2023-03-01T11:03:27;5.50;94.50
3790;DHT22;1910;49.042;9.028;2023-03-01T11:05:59;5.60;95.00
3790;DHT22;1910;49.042;9.028;2023-03-01T11:08:42;5.60;94.90
3790;DHT22;1910;49.042;9.028;2023-03-01T11:16:35;5.90;96.60
3790;DHT22;1910;49.042;9.028;2023-03-01T11:19:18;6.00;95.40
3790;DHT22;1910;49.042;9.028;2023-03-01T11:22:11;6.20;95.90
3790;DHT22;1910;49.042;9.028;2023-03-01T11:24:49;6.20;95.90
3790;DHT22;1910;49.042;9.028;2023-03-01T11:27:21;6.20;93.90
3790;DHT22;1910;49.042;9.028;2023-03-01T11:35:30;6.10;94.90
3790;DHT22;1910;49.042;9.028;2023-03-01T11:40:46;6.30;94.70
3790;DHT22;1910;49.042;9.028;2023-03-01T11:48:58;6.40;94.30
3790;DHT22;1910;49.042;9.028;2023-03-01T11:54:51;6.70;95.40
3790;DHT22;1910;49.042;9.028;2023-03-01T12:09:11;6.50;94.20
3790;DHT22;1910;49.042;9.028;2023-03-01T12:12:01;6.60;94.20
3790;DHT22;1910;49.042;9.028;2023-03-01T12:20:15;7.10;94.20
3790;DHT22;1910;49.042;9.028;2023-03-01T12:26:10;7.10;93.90
3790;DHT22;1910;49.042;9.028;2023-03-01T12:29:07;7.00;93.90
3790;DHT22;1910;49.042;9.028;2023-03-01T12:34:44;6.60;94.50
3790;DHT22;1910;49.042;9.028;2023-03-01T12:43:07;6.70;94.80
3790;DHT22;1910;49.042;9.028;2023-03-01T12:48:40;6.50;94.80
3790;DHT22;1910;49.042;9.028;2023-03-01T12:51:14;6.60;95.20
3790;DHT22;1910;49.042;9.028;2023-03-01T12:53:50;6.70;95.00
3790;DHT22;1910;49.042;9.028;2023-03-01T12:56:22;6.60;95.10
3790;DHT22;1910;49.042;9.028;2023-03-01T12:59:15;6.80;95.80
3790;DHT22;1910;49.042;9.028;2023-03-01T13:01:57;6.80;96.00
3790;DHT22;1910;49.042;9.028;2023-03-01T13:04:31;6.80;95.30
3790;DHT22;1910;49.042;9.028;2023-03-01T13:12:43;6.90;95.50
3790;DHT22;1910;49.042;9.028;2023-03-01T13:17:48;7.20;95.30
3790;DHT22;1910;49.042;9.028;2023-03-01T13:20:17;7.10;94.60
3790;DHT22;1910;49.042;9.028;2023-03-01T13:22:45;7.20;95.20
3790;DHT22;1910;49.042;9.028;2023-03-01T13:25:20;7.10;94.60
3790;DHT22;1910;49.042;9.028;2023-03-01T13:27:46;7.20;94.50
3790;DHT22;1910;49.042;9.028;2023-03-01T13:35:57;7.10;93.80
3790;DHT22;1910;49.042;9.028;2023-03-01T13:38:47;7.10;94.10
3790;DHT22;1910;49.042;9.028;2023-03-01T13:41:16;7.20;94.30
3790;DHT22;1910;49.042;9.028;2023-03-01T13:43:44;7.20;94.30
3790;DHT22;1910;49.042;9.028;2023-03-01T13:46:16;7.20;93.90
3790;DHT22;1910;49.042;9.028;2023-03-01T13:48:45;7.20;94.20
3790;DHT22;1910;49.042;9.028;2023-03-01T13:51:12;7.20;94.40
3790;DHT22;1910;49.042;9.028;2023-03-01T13:53:45;7.20;94.00
3790;DHT22;1910;49.042;9.028;2023-03-01T13:56:33;7.10;94.00
3790;DHT22;1910;49.042;9.028;2023-03-01T13:59:17;7.20;94.30
3790;DHT22;1910;49.042;9.028;2023-03-01T14:01:43;7.10;93.90
3790;DHT22;1910;49.042;9.028;2023-03-01T14:04:27;7.20;94.10
3790;DHT22;1910;49.042;9.028;2023-03-01T14:07:29;6.90;93.40
3790;DHT22;1910;49.042;9.028;2023-03-01T14:10:01;6.90;94.80
3790;DHT22;1910;49.042;9.028;2023-03-01T14:12:46;7.10;94.40
3790;DHT22;1910;49.042;9.028;2023-03-01T14:15:39;7.20;94.30
3790;DHT22;1910;49.042;9.028;2023-03-01T14:18:18;7.20;94.10
3790;DHT22;1910;49.042;9.028;2023-03-01T14:20:45;7.20;93.40
3790;DHT22;1910;49.042;9.028;2023-03-01T14:23:19;7.10;93.50
3790;DHT22;1910;49.042;9.028;2023-03-01T14:25:53;7.00;94.40
3790;DHT22;1910;49.042;9.028;2023-03-01T14:28:22;6.90;93.90
3790;DHT22;1910;49.042;9.028;2023-03-01T14:30:54;7.00;94.00
3790;DHT22;1910;49.042;9.028;2023-03-01T14:35:59;6.90;94.10
3790;DHT22;1910;49.042;9.028;2023-03-01T14:38:37;7.00;95.00
3790;DHT22;1910;49.042;9.028;2023-03-01T14:41:09;7.00;94.00
3790;DHT22;1910;49.042;9.028;2023-03-01T14:43:37;7.10;93.50
3790;DHT22;1910;49.042;9.028;2023-03-01T14:46:05;7.10;93.60
3790;DHT22;1910;49.042;9.028;2023-03-01T14:48:31;7.00;93.70
3790;DHT22;1910;49.042;9.028;2023-03-01T14:50:57;7.10;93.30
3790;DHT22;1910;49.042;9.028;2023-03-01T14:53:27;7.10;93.50
3790;DHT22;1910;49.042;9.028;2023-03-01T14:56:00;7.00;92.90
3790;DHT22;1910;49.042;9.028;2023-03-01T14:58:32;7.00;93.30
3790;DHT22;1910;49.042;9.028;2023-03-01T15:01:00;7.00;93.30
3790;DHT22;1910;49.042;9.028;2023-03-01T15:03:35;7.00;93.20
3790;DHT22;1910;49.042;9.028;2023-03-01T15:06:03;7.10;93.50
3790;DHT22;1910;49.042;9.028;2023-03-01T15:08:29;7.10;93.50
3790;DHT22;1910;49.042;9.028;2023-03-01T15:11:15;7.10;92.80
3790;DHT22;1910;49.042;9.028;2023-03-01T15:13:42;7.10;93.20
3790;DHT22;1910;49.042;9.028;2023-03-01T15:16:27;7.00;93.40
3790;DHT22;1910;49.042;9.028;2023-03-01T15:18:56;6.90;93.80
3790;DHT22;1910;49.042;9.028;2023-03-01T15:21:29;7.00;93.00
3790;DHT22;1910;49.042;9.028;2023-03-01T15:29:21;6.80;93.40
3790;DHT22;1910;49.042;9.028;2023-03-01T15:31:56;6.80;93.30
3790;DHT22;1910;49.042;9.028;2023-03-01T15:34:30;6.90;93.50
3790;DHT22;1910;49.042;9.028;2023-03-01T15:36:59;6.80;93.40
3790;DHT22;1910;49.042;9.028;2023-03-01T15:39:28;6.80;93.30
3790;DHT22;1910;49.042;9.028;2023-03-01T15:41:55;6.80;93.10
3790;DHT22;1910;49.042;9.028;2023-03-01T15:44:29;6.80;93.10
3790;DHT22;1910;49.042;9.028;2023-03-01T15:46:55;6.80;93.80
3790;DHT22;1910;49.042;9.028;2023-03-01T15:49:40;6.90;94.30
3790;DHT22;1910;49.042;9.028;2023-03-01T15:52:25;6.90;94.00
3790;DHT22;1910;49.042;9.028;2023-03-01T15:54:59;6.80;93.30
3790;DHT22;1910;49.042;9.028;2023-03-01T15:57:25;6.80;94.10
3790;DHT22;1910;49.042;9.028;2023-03-01T15:59:50;6.70;94.30
3790;DHT22;1910;49.042;9.028;2023-03-01T16:02:16;6.70;94.00
3790;DHT22;1910;49.042;9.028;2023-03-01T16:04:41;6.60;94.10
3790;DHT22;1910;49.042;9.028;2023-03-01T16:07:09;6.50;94.30
3790;DHT22;1910;49.042;9.028;2023-03-01T16:09:35;6.50;94.50
3790;DHT22;1910;49.042;9.028;2023-03-01T16:12:01;6.50;94.50
3790;DHT22;1910;49.042;9.028;2023-03-01T16:14:27;6.50;94.50
3790;DHT22;1910;49.042;9.028;2023-03-01T16:16:52;6.40;94.60
3790;DHT22;1910;49.042;9.028;2023-03-01T16:19:18;6.40;94.70
3790;DHT22;1910;49.042;9.028;2023-03-01T16:21:44;6.30;94.80
3790;DHT22;1910;49.042;9.028;2023-03-01T16:24:12;6.30;94.90
3790;DHT22;1910;49.042;9.028;2023-03-01T16:26:37;6.20;95.10
3790;DHT22;1910;49.042;9.028;2023-03-01T16:29:03;6.10;94.80
3790;DHT22;1910;49.042;9.028;2023-03-01T16:33:57;6.00;94.80
3790;DHT22;1910;49.042;9.028;2023-03-01T16:36:24;6.00;95.30
3790;DHT22;1910;49.042;9.028;2023-03-01T16:38:51;5.90;96.00
3790;DHT22;1910;49.042;9.028;2023-03-01T16:41:19;5.80;95.90
3790;DHT22;1910;49.042;9.028;2023-03-01T16:43:46;5.70;96.30
3790;DHT22;1910;49.042;9.028;2023-03-01T16:46:27;5.60;96.60
3790;DHT22;1910;49.042;9.028;2023-03-01T16:48:53;5.50;96.70
3790;DHT22;1910;49.042;9.028;2023-03-01T16:51:20;5.40;97.00
3790;DHT22;1910;49.042;9.028;2023-03-01T16:53:46;5.40;97.30
3790;DHT22;1910;49.042;9.028;2023-03-01T16:56:12;5.20;97.40
3790;DHT22;1910;49.042;9.028;2023-03-01T16:58:51;5.10;97.50
3790;DHT22;1910;49.042;9.028;2023-03-01T17:01:19;5.00;98.00
3790;DHT22;1910;49.042;9.028;2023-03-01T17:03:46;4.80;98.40
3790;DHT22;1910;49.042;9.028;2023-03-01T17:06:15;4.70;99.10
3790;DHT22;1910;49.042;9.028;2023-03-01T17:08:41;4.70;99.20
3790;DHT22;1910;49.042;9.028;2023-03-01T17:11:13;4.70;99.20
3790;DHT22;1910;49.042;9.028;2023-03-01T17:13:40;4.60;99.30
3790;DHT22;1910;49.042;9.028;2023-03-01T17:16:11;4.50;99.60
3790;DHT22;1910;49.042;9.028;2023-03-01T17:18:37;4.50;99.90
3790;DHT22;1910;49.042;9.028;2023-03-01T17:21:03;4.40;99.90
3790;DHT22;1910;49.042;9.028;2023-03-01T17:23:30;4.40;99.90
3790;DHT22;1910;49.042;9.028;2023-03-01T17:25:56;4.40;99.90
3790;DHT22;1910;49.042;9.028;2023-03-01T17:28:23;4.40;99.90
3790;DHT22;1910;49.042;9.028;2023-03-01T17:30:48;4.40;99.90
3790;DHT22;1910;49.042;9.028;2023-03-01T17:33:14;4.40;99.90
3790;DHT22;1910;49.042;9.028;2023-03-01T17:35:40;4.40;99.90
3790;DHT22;1910;49.042;9.028;2023-03-01T17:38:06;4.30;99.90
3790;DHT22;1910;49.042;9.028;2023-03-01T17:40:33;4.30;99.90
3790;DHT22;1910;49.042;9.028;2023-03-01T17:43:00;4.20;99.90
3790;DHT22;1910;49.042;9.028;2023-03-01T17:45:26;4.20;99.90
3790;DHT22;1910;49.042;9.028;2023-03-01T17:47:51;4.10;99.90
3790;DHT22;1910;49.042;9.028;2023-03-01T17:50:17;3.90;99.90
3790;DHT22;1910;49.042;9.028;2023-03-01T17:52:42;3.90;99.90
3790;DHT22;1910;49.042;9.028;2023-03-01T17:55:09;3.80;99.90
3790;DHT22;1910;49.042;9.028;2023-03-01T17:57:38;3.60;99.90
3790;DHT22;1910;49.042;9.028;2023-03-01T18:00:05;3.40;99.90
3790;DHT22;1910;49.042;9.028;2023-03-01T18:02:32;3.40;99.90
3790;DHT22;1910;49.042;9.028;2023-03-01T18:04:58;3.40;99.90
3790;DHT22;1910;49.042;9.028;2023-03-01T18:07:27;3.30;99.90
3790;DHT22;1910;49.042;9.028;2023-03-01T18:09:52;3.10;99.90
3790;DHT22;1910;49.042;9.028;2023-03-01T18:12:18;3.00;99.90
3790;DHT22;1910;49.042;9.028;2023-03-01T18:17:10;2.90;99.90
3790;DHT22;1910;49.042;9.028;2023-03-01T18:19:40;2.90;99.90
3790;DHT22;1910;49.042;9.028;2023-03-01T18:22:08;2.90;99.90
3790;DHT22;1910;49.042;9.028;2023-03-01T18:24:35;2.90;99.90
3790;DHT22;1910;49.042;9.028;2023-03-01T18:27:01;2.80;99.90